createdAt,value
2022-09-27T00:01:59.600Z,989.5
2022-09-27T00:02:59.629Z,989.5
2022-09-27T00:03:59.517Z,989.5
2022-09-27T00:05:59.524Z,989.5
2022-09-27T00:06:59.525Z,989.5
2022-09-27T00:08:59.520Z,989.5
2022-09-27T00:09:59.545Z,989.5
2022-09-27T00:10:59.521Z,989.5
2022-09-27T00:11:59.525Z,989.6
2022-09-27T00:12:59.528Z,989.6
2022-09-27T00:18:00.215Z,989.7
2022-09-27T00:18:59.525Z,989.6
2022-09-27T00:19:59.527Z,989.6
2022-09-27T00:20:59.518Z,989.6
2022-09-27T00:21:59.528Z,989.7
2022-09-27T00:22:59.556Z,989.6
2022-09-27T00:24:59.522Z,989.7
2022-09-27T00:26:59.528Z,989.7
2022-09-27T00:27:59.532Z,989.7
2022-09-27T00:28:59.528Z,989.7
2022-09-27T00:29:59.533Z,989.7
2022-09-27T00:30:59.693Z,989.7
2022-09-27T00:31:59.534Z,989.7
2022-09-27T00:32:59.527Z,989.8
2022-09-27T00:33:59.541Z,989.8
2022-09-27T00:36:59.528Z,989.8
2022-09-27T00:37:59.530Z,989.8
2022-09-27T00:38:59.527Z,989.8
2022-09-27T00:39:59.527Z,989.8
2022-09-27T00:40:59.594Z,989.9
2022-09-27T00:41:59.524Z,989.8
2022-09-27T00:42:59.527Z,989.8
2022-09-27T00:43:59.527Z,989.9
2022-09-27T00:45:59.590Z,989.8
2022-09-27T00:49:59.518Z,989.9
2022-09-27T00:50:59.527Z,989.8
2022-09-27T00:51:59.525Z,989.9
2022-09-27T00:52:59.527Z,989.9
2022-09-27T00:53:59.523Z,989.8
2022-09-27T00:54:59.525Z,989.9
2022-09-27T00:56:01.697Z,989.9
2022-09-27T00:56:59.544Z,989.8
2022-09-27T00:58:59.530Z,989.9
2022-09-27T00:59:59.533Z,989.9
2022-09-27T01:00:59.576Z,989.9
2022-09-27T01:01:59.548Z,989.9
2022-09-27T01:02:59.613Z,989.8
2022-09-27T01:03:59.525Z,989.9
2022-09-27T01:04:59.521Z,989.9
2022-09-27T01:05:59.526Z,990
2022-09-27T01:06:59.525Z,989.9
2022-09-27T01:07:59.526Z,989.9
2022-09-27T01:08:59.523Z,989.9
2022-09-27T01:09:59.524Z,989.9
2022-09-27T01:10:59.527Z,989.9
2022-09-27T01:11:59.526Z,989.9
2022-09-27T01:14:59.528Z,989.9
2022-09-27T01:15:59.592Z,989.9
2022-09-27T01:16:59.528Z,990
2022-09-27T01:19:59.525Z,989.9
2022-09-27T01:20:59.548Z,990
2022-09-27T01:21:59.526Z,990
2022-09-27T01:22:59.532Z,990
2022-09-27T01:23:59.524Z,990
2022-09-27T01:25:59.527Z,990
2022-09-27T01:26:59.553Z,990
2022-09-27T01:27:59.519Z,990
2022-09-27T01:28:59.532Z,990
2022-09-27T01:29:59.526Z,990
2022-09-27T01:30:59.575Z,989.9
2022-09-27T01:31:59.526Z,990
2022-09-27T01:32:59.555Z,990
2022-09-27T01:33:59.538Z,990
2022-09-27T01:34:59.522Z,990
2022-09-27T01:35:59.523Z,990
2022-09-27T01:37:59.541Z,990
2022-09-27T01:38:59.517Z,990
2022-09-27T01:39:59.527Z,990
2022-09-27T01:41:59.524Z,990.1
2022-09-27T01:42:59.547Z,990
2022-09-27T01:44:59.529Z,990
2022-09-27T01:46:59.550Z,990
2022-09-27T01:47:59.523Z,990.1
2022-09-27T01:48:59.529Z,990
2022-09-27T01:50:59.531Z,990
2022-09-27T01:51:59.522Z,990
2022-09-27T01:52:59.601Z,990
2022-09-27T01:53:59.527Z,990
2022-09-27T01:56:59.531Z,990
2022-09-27T01:58:59.535Z,990.1
2022-09-27T01:59:59.535Z,990
2022-09-27T02:01:59.530Z,990.1
2022-09-27T02:04:59.523Z,990
2022-09-27T02:05:59.525Z,990
2022-09-27T02:06:59.534Z,990
2022-09-27T02:07:59.524Z,990.1
2022-09-27T02:08:59.524Z,990.1
2022-09-27T02:09:59.539Z,990
2022-09-27T02:11:59.549Z,990.1
2022-09-27T02:12:59.541Z,990.1
2022-09-27T02:13:59.531Z,990.1
2022-09-27T02:14:59.533Z,990.1
2022-09-27T02:16:59.539Z,990.1
2022-09-27T02:20:59.536Z,990.2
2022-09-27T02:21:59.539Z,990.2
2022-09-27T02:22:59.527Z,990.2
2022-09-27T02:24:59.532Z,990.2
2022-09-27T02:25:59.532Z,990.2
2022-09-27T02:26:59.532Z,990.2
2022-09-27T02:27:59.530Z,990.3
2022-09-27T02:28:59.553Z,990.3
2022-09-27T02:29:59.545Z,990.3
2022-09-27T02:30:59.654Z,990.2
2022-09-27T02:33:59.528Z,990.2
2022-09-27T02:35:59.520Z,990.2
2022-09-27T02:37:59.534Z,990.3
2022-09-27T02:38:59.524Z,990.3
2022-09-27T02:39:59.524Z,990.3
2022-09-27T02:40:59.589Z,990.3
2022-09-27T02:41:59.532Z,990.3
2022-09-27T02:42:59.526Z,990.3
2022-09-27T02:43:59.533Z,990.3
2022-09-27T02:44:59.525Z,990.3
2022-09-27T02:45:59.570Z,990.4
2022-09-27T02:46:59.538Z,990.4
2022-09-27T02:47:59.527Z,990.3
2022-09-27T02:48:59.528Z,990.3
2022-09-27T02:49:59.523Z,990.4
2022-09-27T02:50:59.525Z,990.4
2022-09-27T02:51:59.525Z,990.3
2022-09-27T02:52:59.532Z,990.4
2022-09-27T02:53:59.530Z,990.3
2022-09-27T02:54:59.526Z,990.4
2022-09-27T02:55:59.525Z,990.4
2022-09-27T02:56:59.522Z,990.4
2022-09-27T02:57:59.528Z,990.4
2022-09-27T02:58:59.528Z,990.4
2022-09-27T02:59:59.525Z,990.4
2022-09-27T03:00:59.592Z,990.4
2022-09-27T03:01:59.593Z,990.5
2022-09-27T03:02:59.638Z,990.4
2022-09-27T03:04:59.536Z,990.4
2022-09-27T03:05:59.557Z,990.4
2022-09-27T03:06:59.532Z,990.4
2022-09-27T03:07:59.544Z,990.4
2022-09-27T03:09:59.531Z,990.4
2022-09-27T03:10:59.530Z,990.4
2022-09-27T03:11:59.522Z,990.4
2022-09-27T03:12:59.530Z,990.4
2022-09-27T03:14:08.800Z,990.4
2022-09-27T03:14:59.522Z,990.4
2022-09-27T03:16:01.759Z,990.5
2022-09-27T03:17:59.528Z,990.4
2022-09-27T03:18:59.524Z,990.5
2022-09-27T03:19:59.534Z,990.4
2022-09-27T03:20:59.516Z,990.5
2022-09-27T03:22:59.532Z,990.4
2022-09-27T03:23:59.530Z,990.4
2022-09-27T03:25:59.526Z,990.4
2022-09-27T03:26:59.946Z,990.4
2022-09-27T03:28:59.550Z,990.5
2022-09-27T03:30:59.564Z,990.5
2022-09-27T03:31:59.523Z,990.5
2022-09-27T03:32:59.539Z,990.6
2022-09-27T03:33:59.542Z,990.5
2022-09-27T03:34:59.527Z,990.5
2022-09-27T03:35:59.538Z,990.6
2022-09-27T03:36:59.550Z,990.5
2022-09-27T03:37:59.521Z,990.5
2022-09-27T03:38:59.587Z,990.5
2022-09-27T03:39:59.530Z,990.5
2022-09-27T03:40:59.582Z,990.6
2022-09-27T03:41:59.538Z,990.6
2022-09-27T03:42:59.527Z,990.5
2022-09-27T03:43:59.529Z,990.5
2022-09-27T03:44:59.526Z,990.5
2022-09-27T03:45:59.574Z,990.5
2022-09-27T03:47:59.529Z,990.5
2022-09-27T03:48:59.522Z,990.5
2022-09-27T03:50:59.524Z,990.5
2022-09-27T03:51:59.522Z,990.5
2022-09-27T03:52:59.523Z,990.6
2022-09-27T03:53:59.524Z,990.6
2022-09-27T03:55:02.125Z,990.6
2022-09-27T03:55:59.519Z,990.6
2022-09-27T03:56:59.525Z,990.6
2022-09-27T03:57:59.526Z,990.6
2022-09-27T03:58:59.527Z,990.5
2022-09-27T04:01:59.533Z,990.5
2022-09-27T04:02:59.574Z,990.5
2022-09-27T04:03:59.528Z,990.5
2022-09-27T04:04:59.535Z,990.6
2022-09-27T04:05:59.547Z,990.5
2022-09-27T04:07:59.556Z,990.6
2022-09-27T04:08:59.527Z,990.6
2022-09-27T04:09:59.531Z,990.6
2022-09-27T04:10:59.521Z,990.6
2022-09-27T04:12:59.531Z,990.6
2022-09-27T04:13:59.534Z,990.6
2022-09-27T04:14:59.525Z,990.6
2022-09-27T04:15:59.525Z,990.6
2022-09-27T04:16:59.599Z,990.6
2022-09-27T04:17:59.533Z,990.6
2022-09-27T04:18:59.529Z,990.6
2022-09-27T04:19:59.529Z,990.6
2022-09-27T04:21:59.521Z,990.6
2022-09-27T04:22:59.535Z,990.6
2022-09-27T04:23:59.527Z,990.6
2022-09-27T04:24:59.525Z,990.6
2022-09-27T04:25:59.526Z,990.7
2022-09-27T04:26:59.526Z,990.6
2022-09-27T04:28:59.524Z,990.6
2022-09-27T04:29:59.520Z,990.7
2022-09-27T04:30:59.644Z,990.7
2022-09-27T04:31:59.918Z,990.7
2022-09-27T04:33:59.521Z,990.7
2022-09-27T04:34:59.523Z,990.7
2022-09-27T04:35:59.523Z,990.7
2022-09-27T04:36:59.524Z,990.7
2022-09-27T04:38:59.551Z,990.8
2022-09-27T04:39:59.552Z,990.8
2022-09-27T04:40:59.581Z,990.8
2022-09-27T04:43:59.683Z,990.8
2022-09-27T04:44:59.531Z,990.8
2022-09-27T04:45:59.579Z,990.8
2022-09-27T04:46:59.592Z,990.8
2022-09-27T04:48:59.531Z,990.8
2022-09-27T04:49:59.524Z,990.8
2022-09-27T04:50:59.537Z,990.8
2022-09-27T04:51:59.534Z,990.8
2022-09-27T04:54:59.543Z,990.9
2022-09-27T04:55:59.526Z,990.9
2022-09-27T04:56:59.937Z,990.9
2022-09-27T04:57:59.518Z,990.9
2022-09-27T04:58:59.524Z,990.9
2022-09-27T05:01:59.550Z,990.8
2022-09-27T05:02:59.577Z,990.8
2022-09-27T05:03:59.527Z,990.8
2022-09-27T05:05:59.531Z,990.9
2022-09-27T05:06:59.522Z,990.8
2022-09-27T05:07:59.535Z,990.9
2022-09-27T05:08:59.552Z,990.9
2022-09-27T05:09:59.555Z,990.9
2022-09-27T05:10:59.521Z,990.9
2022-09-27T05:11:59.533Z,990.9
2022-09-27T05:12:59.519Z,990.9
2022-09-27T05:14:59.532Z,991
2022-09-27T05:15:59.524Z,991
2022-09-27T05:17:59.534Z,991
2022-09-27T05:18:59.519Z,991
2022-09-27T05:19:59.529Z,990.9
2022-09-27T05:22:59.540Z,990.9
2022-09-27T05:23:59.527Z,990.9
2022-09-27T05:24:59.533Z,991
2022-09-27T05:26:59.526Z,990.9
2022-09-27T05:28:59.531Z,991
2022-09-27T05:30:59.603Z,991
2022-09-27T05:31:59.536Z,991
2022-09-27T05:32:59.523Z,991.1
2022-09-27T05:33:59.533Z,991.1
2022-09-27T05:35:59.536Z,991.1
2022-09-27T05:36:59.538Z,991.1
2022-09-27T05:37:59.529Z,991.1
2022-09-27T05:38:59.535Z,991.1
2022-09-27T05:40:01.230Z,991.1
2022-09-27T05:40:59.587Z,991.1
2022-09-27T05:43:59.546Z,991.1
2022-09-27T05:44:59.520Z,991.2
2022-09-27T05:45:59.548Z,991.2
2022-09-27T05:47:59.525Z,991.1
2022-09-27T05:48:59.526Z,991.1
2022-09-27T05:49:59.533Z,991.1
2022-09-27T05:50:59.524Z,991.2
2022-09-27T05:51:59.533Z,991.2
2022-09-27T05:52:59.535Z,991.2
2022-09-27T05:53:59.529Z,991.1
2022-09-27T05:54:59.523Z,991.1
2022-09-27T05:55:59.527Z,991.2
2022-09-27T05:56:59.526Z,991.2
2022-09-27T05:59:59.526Z,991.2
2022-09-27T06:00:59.539Z,991.2
2022-09-27T06:01:59.581Z,991.2
2022-09-27T06:02:59.611Z,991.2
2022-09-27T06:04:59.522Z,991.2
2022-09-27T06:05:59.546Z,991.2
2022-09-27T06:06:59.519Z,991.2
2022-09-27T06:07:59.534Z,991.2
2022-09-27T06:09:59.538Z,991.2
2022-09-27T06:10:59.520Z,991.2
2022-09-27T06:11:59.551Z,991.3
2022-09-27T06:12:59.589Z,991.3
2022-09-27T06:14:59.537Z,991.3
2022-09-27T06:15:59.533Z,991.2
2022-09-27T06:16:59.609Z,991.3
2022-09-27T06:17:59.527Z,991.2
2022-09-27T06:19:59.528Z,991.2
2022-09-27T06:20:59.526Z,991.2
2022-09-27T06:21:59.525Z,991.3
2022-09-27T06:22:59.526Z,991.3
2022-09-27T06:23:59.525Z,991.2
2022-09-27T06:25:59.524Z,991.3
2022-09-27T06:26:59.518Z,991.3
2022-09-27T06:27:59.526Z,991.3
2022-09-27T06:28:59.541Z,991.3
2022-09-27T06:29:59.536Z,991.4
2022-09-27T06:30:59.639Z,991.4
2022-09-27T06:31:59.520Z,991.4
2022-09-27T06:32:59.542Z,991.4
2022-09-27T06:33:59.538Z,991.4
2022-09-27T06:34:59.529Z,991.4
2022-09-27T06:35:59.521Z,991.5
2022-09-27T06:39:59.537Z,991.6
2022-09-27T06:40:59.570Z,991.6
2022-09-27T06:41:59.523Z,991.6
2022-09-27T06:43:59.530Z,991.7
2022-09-27T06:44:59.532Z,991.7
2022-09-27T06:45:59.598Z,991.7
2022-09-27T06:46:59.527Z,991.7
2022-09-27T06:48:59.522Z,991.7
2022-09-27T06:49:59.552Z,991.7
2022-09-27T06:50:59.524Z,991.7
2022-09-27T06:51:59.528Z,991.7
2022-09-27T06:52:59.517Z,991.7
2022-09-27T06:53:59.532Z,991.7
2022-09-27T06:57:02.487Z,991.7
2022-09-27T06:58:59.531Z,991.7
2022-09-27T06:59:59.534Z,991.8
2022-09-27T07:00:59.571Z,991.8
2022-09-27T07:01:59.598Z,991.7
2022-09-27T07:02:59.536Z,991.8
2022-09-27T07:03:59.524Z,991.8
2022-09-27T07:04:59.521Z,991.8
2022-09-27T07:05:59.536Z,991.7
2022-09-27T07:06:59.537Z,991.7
2022-09-27T07:07:59.527Z,991.7
2022-09-27T07:08:59.541Z,991.7
2022-09-27T07:09:59.520Z,991.7
2022-09-27T07:11:59.536Z,991.7
2022-09-27T07:12:59.527Z,991.7
2022-09-27T07:13:59.551Z,991.7
2022-09-27T07:15:59.540Z,991.8
2022-09-27T07:16:59.524Z,991.7
2022-09-27T07:17:59.532Z,991.7
2022-09-27T07:18:59.535Z,991.8
2022-09-27T07:19:59.527Z,991.8
2022-09-27T07:21:00.537Z,991.8
2022-09-27T07:21:59.536Z,991.7
2022-09-27T07:22:59.520Z,991.8
2022-09-27T07:23:59.538Z,991.8
2022-09-27T07:25:59.524Z,991.8
2022-09-27T07:26:59.570Z,991.9
2022-09-27T07:27:59.526Z,991.8
2022-09-27T07:29:59.527Z,991.9
2022-09-27T07:30:59.611Z,992
2022-09-27T07:32:59.521Z,991.9
2022-09-27T07:33:59.523Z,991.9
2022-09-27T07:34:59.522Z,991.9
2022-09-27T07:35:59.527Z,991.9
2022-09-27T07:36:59.560Z,991.9
2022-09-27T07:37:59.529Z,991.9
2022-09-27T07:38:59.532Z,992
2022-09-27T07:39:59.535Z,991.9
2022-09-27T07:40:59.578Z,991.9
2022-09-27T07:41:59.541Z,991.9
2022-09-27T07:42:59.523Z,991.9
2022-09-27T07:43:59.530Z,991.9
2022-09-27T07:44:59.544Z,992
2022-09-27T07:45:59.590Z,992
2022-09-27T07:46:59.522Z,992
2022-09-27T07:47:59.523Z,992
2022-09-27T07:49:01.198Z,992
2022-09-27T07:49:59.538Z,992.1
2022-09-27T07:50:59.535Z,992
2022-09-27T07:51:59.560Z,992
2022-09-27T07:52:59.528Z,992
2022-09-27T07:53:59.556Z,992.1
2022-09-27T07:54:59.555Z,992.1
2022-09-27T07:55:59.531Z,992.1
2022-09-27T07:56:59.531Z,992.1
2022-09-27T07:57:59.529Z,992.1
2022-09-27T07:59:59.520Z,992.2
2022-09-27T08:00:59.586Z,992.2
2022-09-27T08:01:59.556Z,992.2
2022-09-27T08:02:59.531Z,992.2
2022-09-27T08:04:59.524Z,992.3
2022-09-27T08:05:59.521Z,992.3
2022-09-27T08:06:59.943Z,992.3
2022-09-27T08:07:59.529Z,992.3
2022-09-27T08:08:59.527Z,992.3
2022-09-27T08:09:59.524Z,992.3
2022-09-27T08:10:59.518Z,992.3
2022-09-27T08:11:59.531Z,992.3
2022-09-27T08:12:59.525Z,992.3
2022-09-27T08:14:59.533Z,992.4
2022-09-27T08:15:59.553Z,992.3
2022-09-27T08:16:59.543Z,992.3
2022-09-27T08:17:59.533Z,992.4
2022-09-27T08:19:59.531Z,992.4
2022-09-27T08:20:59.530Z,992.4
2022-09-27T08:21:59.524Z,992.5
2022-09-27T08:22:59.524Z,992.5
2022-09-27T08:23:59.523Z,992.5
2022-09-27T08:24:59.524Z,992.5
2022-09-27T08:25:59.529Z,992.4
2022-09-27T08:26:59.533Z,992.5
2022-09-27T08:27:59.528Z,992.5
2022-09-27T08:28:59.531Z,992.5
2022-09-27T08:29:59.531Z,992.5
2022-09-27T08:30:59.538Z,992.5
2022-09-27T08:31:59.598Z,992.5
2022-09-27T08:32:59.535Z,992.5
2022-09-27T08:33:59.523Z,992.5
2022-09-27T08:35:59.525Z,992.5
2022-09-27T08:36:59.526Z,992.5
2022-09-27T08:37:59.519Z,992.5
2022-09-27T08:38:59.525Z,992.5
2022-09-27T08:39:59.523Z,992.5
2022-09-27T08:40:59.567Z,992.5
2022-09-27T08:41:59.529Z,992.4
2022-09-27T08:42:59.522Z,992.5
2022-09-27T08:43:59.530Z,992.5
2022-09-27T08:45:03.065Z,992.5
2022-09-27T08:46:59.551Z,992.5
2022-09-27T08:47:59.537Z,992.5
2022-09-27T08:49:59.525Z,992.5
2022-09-27T08:50:59.522Z,992.5
2022-09-27T08:51:59.531Z,992.6
2022-09-27T08:52:59.532Z,992.6
2022-09-27T08:53:59.528Z,992.5
2022-09-27T08:55:00.061Z,992.5
2022-09-27T08:55:59.534Z,992.5
2022-09-27T08:56:59.529Z,992.6
2022-09-27T08:57:59.547Z,992.5
2022-09-27T08:58:59.540Z,992.6
2022-09-27T08:59:59.537Z,992.6
2022-09-27T09:00:59.643Z,992.6
2022-09-27T09:01:59.581Z,992.6
2022-09-27T09:02:59.531Z,992.6
2022-09-27T09:03:59.532Z,992.7
2022-09-27T09:04:59.534Z,992.6
2022-09-27T09:06:59.544Z,992.6
2022-09-27T09:07:59.534Z,992.7
2022-09-27T09:08:59.539Z,992.7
2022-09-27T09:09:59.532Z,992.7
2022-09-27T09:11:59.536Z,992.6
2022-09-27T09:12:59.527Z,992.6
2022-09-27T09:13:59.528Z,992.7
2022-09-27T09:14:59.532Z,992.7
2022-09-27T09:15:59.529Z,992.7
2022-09-27T09:16:59.529Z,992.6
2022-09-27T09:18:59.523Z,992.7
2022-09-27T09:19:59.531Z,992.7
2022-09-27T09:20:59.532Z,992.7
2022-09-27T09:21:59.563Z,992.7
2022-09-27T09:22:59.534Z,992.7
2022-09-27T09:23:59.527Z,992.7
2022-09-27T09:24:59.524Z,992.7
2022-09-27T09:25:59.530Z,992.7
2022-09-27T09:26:59.532Z,992.7
2022-09-27T09:28:59.536Z,992.7
2022-09-27T09:29:59.549Z,992.7
2022-09-27T09:30:59.629Z,992.7
2022-09-27T09:32:59.528Z,992.7
2022-09-27T09:33:59.530Z,992.7
2022-09-27T09:34:59.528Z,992.7
2022-09-27T09:35:59.549Z,992.6
2022-09-27T09:36:59.534Z,992.7
2022-09-27T09:37:59.534Z,992.6
2022-09-27T09:38:59.536Z,992.7
2022-09-27T09:39:59.526Z,992.7
2022-09-27T09:40:59.535Z,992.7
2022-09-27T09:41:59.535Z,992.7
2022-09-27T09:42:59.536Z,992.7
2022-09-27T09:43:59.533Z,992.7
2022-09-27T09:44:59.538Z,992.7
2022-09-27T09:45:59.621Z,992.7
2022-09-27T09:46:59.556Z,992.7
2022-09-27T09:47:59.538Z,992.7
2022-09-27T09:49:59.556Z,992.7
2022-09-27T09:50:59.531Z,992.7
2022-09-27T09:51:59.527Z,992.7
2022-09-27T09:53:59.536Z,992.7
2022-09-27T09:54:59.534Z,992.7
2022-09-27T09:55:59.545Z,992.7
2022-09-27T09:56:59.527Z,992.7
2022-09-27T09:57:59.533Z,992.7
2022-09-27T09:59:59.546Z,992.7
2022-09-27T10:00:59.615Z,992.7
2022-09-27T10:01:59.579Z,992.7
2022-09-27T10:02:59.547Z,992.7
2022-09-27T10:05:02.737Z,992.7
2022-09-27T10:05:59.544Z,992.7
2022-09-27T10:07:59.543Z,992.7
2022-09-27T10:08:59.535Z,992.6
2022-09-27T10:09:59.546Z,992.7
2022-09-27T10:10:59.533Z,992.6
2022-09-27T10:11:59.528Z,992.7
2022-09-27T10:12:59.538Z,992.6
2022-09-27T10:13:59.535Z,992.7
2022-09-27T10:14:59.533Z,992.6
2022-09-27T10:15:59.576Z,992.6
2022-09-27T10:16:59.542Z,992.6
2022-09-27T10:17:59.538Z,992.6
2022-09-27T10:18:59.541Z,992.6
2022-09-27T10:20:59.541Z,992.6
2022-09-27T10:21:59.533Z,992.7
2022-09-27T10:22:59.560Z,992.6
2022-09-27T10:23:59.530Z,992.6
2022-09-27T10:25:59.545Z,992.6
2022-09-27T10:26:59.541Z,992.6
2022-09-27T10:27:59.538Z,992.6
2022-09-27T10:28:59.531Z,992.6
2022-09-27T10:30:59.537Z,992.6
2022-09-27T10:31:59.610Z,992.5
2022-09-27T10:32:59.529Z,992.5
2022-09-27T10:33:59.548Z,992.5
2022-09-27T10:34:59.554Z,992.5
2022-09-27T10:35:59.531Z,992.5
2022-09-27T10:36:59.535Z,992.5
2022-09-27T10:37:59.541Z,992.5
2022-09-27T10:38:59.546Z,992.5
2022-09-27T10:39:59.545Z,992.5
2022-09-27T10:41:59.540Z,992.5
2022-09-27T10:42:59.543Z,992.4
2022-09-27T10:43:59.541Z,992.4
2022-09-27T10:44:59.550Z,992.4
2022-09-27T10:46:59.531Z,992.4
2022-09-27T10:47:59.546Z,992.4
2022-09-27T10:48:59.546Z,992.4
2022-09-27T10:49:59.543Z,992.4
2022-09-27T10:50:59.779Z,992.4
2022-09-27T10:51:59.535Z,992.4
2022-09-27T10:52:59.531Z,992.4
2022-09-27T10:53:59.534Z,992.3
2022-09-27T10:54:59.543Z,992.3
2022-09-27T10:55:59.544Z,992.3
2022-09-27T10:57:59.539Z,992.3
2022-09-27T10:58:59.527Z,992.3
2022-09-27T10:59:59.544Z,992.3
2022-09-27T11:00:59.612Z,992.3
2022-09-27T11:01:59.539Z,992.3
2022-09-27T11:02:59.539Z,992.3
2022-09-27T11:03:59.532Z,992.2
2022-09-27T11:04:59.586Z,992.3
2022-09-27T11:05:59.580Z,992.3
2022-09-27T11:06:59.539Z,992.3
2022-09-27T11:07:59.539Z,992.3
2022-09-27T11:09:59.585Z,992.3
2022-09-27T11:10:59.538Z,992.3
2022-09-27T11:11:59.585Z,992.3
2022-09-27T11:13:59.551Z,992.3
2022-09-27T11:14:59.535Z,992.2
2022-09-27T11:15:59.604Z,992.4
2022-09-27T11:16:59.601Z,992.3
2022-09-27T11:18:59.541Z,992.3
2022-09-27T11:19:59.535Z,992.3
2022-09-27T11:20:59.534Z,992.3
2022-09-27T11:21:59.540Z,992.3
2022-09-27T11:22:59.531Z,992.3
2022-09-27T11:23:59.533Z,992.3
2022-09-27T11:24:59.543Z,992.3
2022-09-27T11:25:59.537Z,992.3
2022-09-27T11:26:59.534Z,992.3
2022-09-27T11:28:59.544Z,992.3
2022-09-27T11:29:59.543Z,992.3
2022-09-27T11:30:59.549Z,992.3
2022-09-27T11:31:59.577Z,992.4
2022-09-27T11:32:59.540Z,992.3
2022-09-27T11:34:59.550Z,992.3
2022-09-27T11:35:59.567Z,992.4
2022-09-27T11:36:59.566Z,992.3
2022-09-27T11:39:02.739Z,992.4
2022-09-27T11:39:59.544Z,992.3
2022-09-27T11:40:59.548Z,992.4
2022-09-27T11:41:59.537Z,992.4
2022-09-27T11:42:59.541Z,992.4
2022-09-27T11:43:59.543Z,992.3
2022-09-27T11:45:19.842Z,992.3
2022-09-27T11:46:19.208Z,992.3
2022-09-27T11:46:59.671Z,992.3
2022-09-27T11:48:59.556Z,992.3
2022-09-27T11:49:59.548Z,992.3
2022-09-27T11:50:59.553Z,992.2
2022-09-27T11:51:59.540Z,992.2
2022-09-27T11:52:59.564Z,992.3
2022-09-27T11:53:59.549Z,992.2
2022-09-27T11:54:59.559Z,992.2
2022-09-27T11:55:59.549Z,992.2
2022-09-27T11:56:59.553Z,992.2
2022-09-27T11:57:59.541Z,992.2
2022-09-27T11:59:59.540Z,992.2
2022-09-27T12:00:59.546Z,992.2
2022-09-27T12:01:59.613Z,992.2
2022-09-27T12:02:59.582Z,992.3
2022-09-27T12:03:59.555Z,992.2
2022-09-27T12:04:59.544Z,992.2
2022-09-27T12:06:03.573Z,992.2
2022-09-27T12:06:59.542Z,992.2
2022-09-27T12:07:59.565Z,992.2
2022-09-27T12:08:59.551Z,992.2
2022-09-27T12:10:59.545Z,992.2
2022-09-27T12:11:59.544Z,992.2
2022-09-27T12:12:59.567Z,992.2
2022-09-27T12:13:59.686Z,992.2
2022-09-27T12:15:02.946Z,992.2
2022-09-27T12:15:59.576Z,992.2
2022-09-27T12:16:59.538Z,992.2
2022-09-27T12:17:59.548Z,992.2
2022-09-27T12:18:59.566Z,992.2
2022-09-27T12:20:59.549Z,992.2
2022-09-27T12:21:59.539Z,992.2
2022-09-27T12:23:00.592Z,992.2
2022-09-27T12:23:59.554Z,992.2
2022-09-27T12:25:59.536Z,992.2
2022-09-27T12:28:59.546Z,992.2
2022-09-27T12:29:59.548Z,992.2
2022-09-27T12:31:24.434Z,992.2
2022-09-27T12:31:59.603Z,992.2
2022-09-27T12:32:59.558Z,992.3
2022-09-27T12:33:59.543Z,992.2
2022-09-27T12:34:59.540Z,992.2
2022-09-27T12:35:59.539Z,992.2
2022-09-27T12:36:59.539Z,992.3
2022-09-27T12:37:59.540Z,992.2
2022-09-27T12:38:59.567Z,992.2
2022-09-27T12:39:59.539Z,992.2
2022-09-27T12:41:59.549Z,992.2
2022-09-27T12:42:59.540Z,992.2
2022-09-27T12:43:59.541Z,992.3
2022-09-27T12:44:59.547Z,992.2
2022-09-27T12:47:00.393Z,992.2
2022-09-27T12:47:59.540Z,992.2
2022-09-27T12:50:01.755Z,992.2
2022-09-27T12:50:59.538Z,992.2
2022-09-27T12:51:59.553Z,992.2
2022-09-27T12:52:59.547Z,992.3
2022-09-27T12:53:59.554Z,992.3
2022-09-27T12:54:59.535Z,992.3
2022-09-27T12:55:59.546Z,992.3
2022-09-27T12:56:59.546Z,992.3
2022-09-27T12:57:59.547Z,992.3
2022-09-27T12:58:59.543Z,992.3
2022-09-27T12:59:59.549Z,992.3
2022-09-27T13:00:59.573Z,992.3
2022-09-27T13:01:59.621Z,992.3
2022-09-27T13:03:16.426Z,992.3
2022-09-27T13:03:59.552Z,992.3
2022-09-27T13:04:59.540Z,992.3
2022-09-27T13:05:59.544Z,992.3
2022-09-27T13:06:59.551Z,992.3
2022-09-27T13:07:59.575Z,992.3
2022-09-27T13:08:59.545Z,992.3
2022-09-27T13:09:59.593Z,992.3
2022-09-27T13:10:59.548Z,992.3
2022-09-27T13:11:59.548Z,992.3
2022-09-27T13:13:59.548Z,992.2
2022-09-27T13:14:59.583Z,992.3
2022-09-27T13:15:59.640Z,992.3
2022-09-27T13:16:59.541Z,992.3
2022-09-27T13:17:59.561Z,992.3
2022-09-27T13:18:59.565Z,992.3
2022-09-27T13:19:59.548Z,992.3
2022-09-27T13:20:59.546Z,992.2
2022-09-27T13:21:59.545Z,992.2
2022-09-27T13:22:59.551Z,992.2
2022-09-27T13:23:59.540Z,992.2
2022-09-27T13:24:59.549Z,992.2
2022-09-27T13:26:59.538Z,992.3
2022-09-27T13:27:59.542Z,992.3
2022-09-27T13:28:59.549Z,992.3
2022-09-27T13:29:59.539Z,992.3
2022-09-27T13:31:59.544Z,992.3
2022-09-27T13:32:59.547Z,992.3
2022-09-27T13:34:59.543Z,992.3
2022-09-27T13:36:59.552Z,992.4
2022-09-27T13:37:59.755Z,992.4
2022-09-27T13:38:59.551Z,992.3
2022-09-27T13:39:59.556Z,992.3
2022-09-27T13:40:59.607Z,992.4
2022-09-27T13:41:59.543Z,992.3
2022-09-27T13:42:59.759Z,992.3
2022-09-27T13:43:59.806Z,992.3
2022-09-27T13:44:59.831Z,992.3
2022-09-27T13:45:59.586Z,992.3
2022-09-27T13:47:00.732Z,992.3
2022-09-27T13:47:59.554Z,992.3
2022-09-27T13:48:59.543Z,992.3
2022-09-27T13:49:59.554Z,992.2
2022-09-27T13:50:59.908Z,992.2
2022-09-27T13:51:59.585Z,992.2
2022-09-27T13:52:59.546Z,992.2
2022-09-27T13:53:59.544Z,992.2
2022-09-27T13:55:59.550Z,992.2
2022-09-27T13:56:59.576Z,992.1
2022-09-27T13:58:59.551Z,992.1
2022-09-27T13:59:59.547Z,992.1
2022-09-27T14:00:59.591Z,992.1
2022-09-27T14:01:59.583Z,992.1
2022-09-27T14:02:59.546Z,992.1
2022-09-27T14:03:59.562Z,992.1
2022-09-27T14:04:59.547Z,992.1
2022-09-27T14:05:59.549Z,992
2022-09-27T14:06:59.551Z,992
2022-09-27T14:07:59.555Z,992.1
2022-09-27T14:10:59.549Z,992.1
2022-09-27T14:11:59.573Z,992.1
2022-09-27T14:12:59.557Z,992.1
2022-09-27T14:13:59.587Z,992.1
2022-09-27T14:14:59.545Z,992.1
2022-09-27T14:15:59.603Z,992.1
2022-09-27T14:17:59.548Z,992.2
2022-09-27T14:18:59.563Z,992.2
2022-09-27T14:19:59.549Z,992.1
2022-09-27T14:20:59.551Z,992.1
2022-09-27T14:21:59.547Z,992.2
2022-09-27T14:22:59.548Z,992.2
2022-09-27T14:23:59.558Z,992.2
2022-09-27T14:24:59.543Z,992.2
2022-09-27T14:25:59.545Z,992.2
2022-09-27T14:26:59.545Z,992.2
2022-09-27T14:27:59.587Z,992.2
2022-09-27T14:28:59.567Z,992.2
2022-09-27T14:29:59.547Z,992.2
2022-09-27T14:31:59.548Z,992.2
2022-09-27T14:32:59.557Z,992.2
2022-09-27T14:33:59.543Z,992.2
2022-09-27T14:34:59.550Z,992.1
2022-09-27T14:35:59.543Z,992.1
2022-09-27T14:36:59.548Z,992.1
2022-09-27T14:38:02.596Z,992.1
2022-09-27T14:38:59.554Z,992.1
2022-09-27T14:39:59.550Z,992.1
2022-09-27T14:40:59.701Z,992.1
2022-09-27T14:41:59.559Z,992.1
2022-09-27T14:42:59.662Z,992.1
2022-09-27T14:43:59.550Z,992.1
2022-09-27T14:45:59.543Z,992.1
2022-09-27T14:46:59.624Z,992.1
2022-09-27T14:47:59.545Z,992.2
2022-09-27T14:48:59.588Z,992.1
2022-09-27T14:49:59.545Z,992.2
2022-09-27T14:51:04.162Z,992.2
2022-09-27T14:52:59.554Z,992.2
2022-09-27T14:53:59.549Z,992.2
2022-09-27T14:54:59.550Z,992.2
2022-09-27T14:55:59.551Z,992.3
2022-09-27T14:57:59.560Z,992.2
2022-09-27T14:58:59.560Z,992.2
2022-09-27T14:59:59.556Z,992.2
2022-09-27T15:00:59.562Z,992.3
2022-09-27T15:01:59.558Z,992.2
2022-09-27T15:03:59.639Z,992.2
2022-09-27T15:04:59.577Z,992.2
2022-09-27T15:05:59.605Z,992.2
2022-09-27T15:06:59.544Z,992.2
2022-09-27T15:07:59.546Z,992.2
2022-09-27T15:08:59.544Z,992.2
2022-09-27T15:09:59.545Z,992.2
2022-09-27T15:10:59.566Z,992.2
2022-09-27T15:11:59.552Z,992.2
2022-09-27T15:12:59.547Z,992.3
2022-09-27T15:13:59.699Z,992.2
2022-09-27T15:14:59.552Z,992.3
2022-09-27T15:15:59.656Z,992.3
2022-09-27T15:16:59.545Z,992.3
2022-09-27T15:17:59.552Z,992.3
2022-09-27T15:19:59.546Z,992.4
2022-09-27T15:20:59.556Z,992.3
2022-09-27T15:21:59.545Z,992.3
2022-09-27T15:22:59.545Z,992.3
2022-09-27T15:24:59.552Z,992.3
2022-09-27T15:25:59.560Z,992.3
2022-09-27T15:26:59.555Z,992.3
2022-09-27T15:27:59.554Z,992.4
2022-09-27T15:29:00.651Z,992.3
2022-09-27T15:30:59.676Z,992.3
2022-09-27T15:31:59.559Z,992.4